createdAt,value
2023-04-02T00:02:23.249Z,8.44
2023-04-02T00:05:30.323Z,8.45
2023-04-02T00:08:03.433Z,8.52
2023-04-02T00:10:36.914Z,8.49
2023-04-02T00:13:18.027Z,8.53
2023-04-02T00:15:50.798Z,8.55
2023-04-02T00:18:20.960Z,8.59
2023-04-02T00:20:56.565Z,8.59
2023-04-02T00:23:24.226Z,8.60
2023-04-02T00:25:51.679Z,8.53
2023-04-02T00:28:21.973Z,8.53
2023-04-02T00:31:01.156Z,8.47
2023-04-02T00:33:30.541Z,8.47
2023-04-02T00:35:57.882Z,8.48
2023-04-02T00:38:27.717Z,8.50
2023-04-02T00:40:57.147Z,8.43
2023-04-02T00:43:31.108Z,8.42
2023-04-02T00:46:01.403Z,8.40
2023-04-02T00:48:31.791Z,8.46
2023-04-02T00:51:16.920Z,8.42
2023-04-02T00:53:46.380Z,8.41
2023-04-02T00:56:19.229Z,8.48
2023-04-02T00:58:52.257Z,8.52
2023-04-02T01:01:27.618Z,8.54
2023-04-02T01:04:01.365Z,8.64
2023-04-02T01:06:31.386Z,8.61
2023-04-02T01:09:36.420Z,8.61
2023-04-02T01:12:19.282Z,8.71
2023-04-02T01:15:04.428Z,8.63
2023-04-02T01:17:39.698Z,8.64
2023-04-02T01:20:09.898Z,8.63
2023-04-02T01:22:52.954Z,8.63
2023-04-02T01:25:28.590Z,8.61
2023-04-02T01:28:05.178Z,8.57
2023-04-02T01:30:35.103Z,8.55
2023-04-02T01:33:03.637Z,8.60
2023-04-02T01:35:34.292Z,8.53
2023-04-02T01:38:14.248Z,8.52
2023-04-02T01:40:57.610Z,8.47
2023-04-02T01:43:49.676Z,8.49
2023-04-02T01:46:26.395Z,8.54
2023-04-02T01:48:55.499Z,8.51
2023-04-02T01:51:29.437Z,8.52
2023-04-02T01:53:59.989Z,8.49
2023-04-02T01:56:29.004Z,8.59
2023-04-02T01:58:59.506Z,8.69
2023-04-02T02:01:36.288Z,8.66
2023-04-02T02:04:04.775Z,8.58
2023-04-02T02:06:32.018Z,8.51
2023-04-02T02:09:04.723Z,8.50
2023-04-02T02:11:36.475Z,8.50
2023-04-02T02:14:16.145Z,8.51
2023-04-02T02:16:44.350Z,8.46
2023-04-02T02:19:27.263Z,8.43
2023-04-02T02:22:06.988Z,8.33
2023-04-02T02:24:36.235Z,8.23
2023-04-02T02:27:22.480Z,8.11
2023-04-02T02:29:54.498Z,7.96
2023-04-02T02:32:25.574Z,7.78
2023-04-02T02:35:04.383Z,7.76
2023-04-02T02:37:36.491Z,7.73
2023-04-02T02:40:08.481Z,7.78
2023-04-02T02:42:42.974Z,7.84
2023-04-02T02:45:18.578Z,7.86
2023-04-02T02:47:47.346Z,7.86
2023-04-02T02:50:21.770Z,7.90
2023-04-02T02:52:54.584Z,7.94
2023-04-02T02:55:27.553Z,7.89
2023-04-02T02:58:06.890Z,7.87
2023-04-02T03:00:36.522Z,7.89
2023-04-02T03:03:08.158Z,7.88
2023-04-02T03:05:36.441Z,7.86
2023-04-02T03:08:07.376Z,7.82
2023-04-02T03:10:37.828Z,7.72
2023-04-02T03:13:23.083Z,7.71
2023-04-02T03:16:02.830Z,7.63
2023-04-02T03:18:46.443Z,7.70
2023-04-02T03:21:28.946Z,7.75
2023-04-02T03:24:00.443Z,7.67
2023-04-02T03:26:34.325Z,7.63
2023-04-02T03:29:11.531Z,7.69
2023-04-02T03:31:42.671Z,7.73
2023-04-02T03:34:14.414Z,7.73
2023-04-02T03:37:05.208Z,7.70
2023-04-02T03:39:57.189Z,7.70
2023-04-02T03:42:30.790Z,7.74
2023-04-02T03:45:03.846Z,7.84
2023-04-02T03:47:36.040Z,7.83
2023-04-02T03:50:23.862Z,7.85
2023-04-02T03:52:53.164Z,7.81
2023-04-02T03:55:23.389Z,7.88
2023-04-02T03:57:51.304Z,7.88
2023-04-02T04:00:32.688Z,7.88
2023-04-02T04:03:09.680Z,7.85
2023-04-02T04:05:45.972Z,7.75
2023-04-02T04:08:17.784Z,7.70
2023-04-02T04:10:45.043Z,7.67
2023-04-02T04:13:18.417Z,7.68
2023-04-02T04:15:46.141Z,7.73
2023-04-02T04:18:38.071Z,7.74
2023-04-02T04:21:15.592Z,7.76
2023-04-02T04:23:50.771Z,7.80
2023-04-02T04:26:24.737Z,7.86
2023-04-02T04:28:58.560Z,7.85
2023-04-02T04:31:47.162Z,7.92
2023-04-02T04:34:30.056Z,7.93
2023-04-02T04:37:01.922Z,7.99
2023-04-02T04:39:36.609Z,8.07
2023-04-02T04:42:05.650Z,8.19
2023-04-02T04:44:44.308Z,8.25
2023-04-02T04:47:16.082Z,8.38
2023-04-02T04:49:47.952Z,8.55
2023-04-02T04:52:25.922Z,8.72
2023-04-02T04:54:53.114Z,8.86
2023-04-02T04:57:30.151Z,9.07
2023-04-02T05:00:15.814Z,9.32
2023-04-02T05:02:53.892Z,9.51
2023-04-02T05:05:29.356Z,9.64
2023-04-02T05:08:06.186Z,9.82
2023-04-02T05:10:57.358Z,9.88
2023-04-02T05:13:29.797Z,9.93
2023-04-02T05:16:15.567Z,9.87
2023-04-02T05:19:12.986Z,10.07
2023-04-02T05:21:49.271Z,10.14
2023-04-02T05:24:30.130Z,10.22
2023-04-02T05:27:02.140Z,10.22
2023-04-02T05:29:36.259Z,10.33
2023-04-02T05:32:17.226Z,10.36
2023-04-02T05:34:48.948Z,10.31
2023-04-02T05:37:22.893Z,10.34
2023-04-02T05:39:54.974Z,10.32
2023-04-02T05:42:28.612Z,10.43
2023-04-02T05:45:14.653Z,10.50
2023-04-02T05:47:43.478Z,10.51
2023-04-02T05:50:43.901Z,10.27
2023-04-02T05:53:21.594Z,10.42
2023-04-02T05:56:13.826Z,10.34
2023-04-02T05:58:46.332Z,10.44
2023-04-02T06:01:31.103Z,10.59
2023-04-02T06:04:26.285Z,10.77
2023-04-02T06:06:59.385Z,10.98
2023-04-02T06:09:27.822Z,11.22
2023-04-02T06:12:31.273Z,11.18
2023-04-02T06:14:59.553Z,11.13
2023-04-02T06:17:30.030Z,11.11
2023-04-02T06:19:59.421Z,11.13
2023-04-02T06:22:37.243Z,10.92
2023-04-02T06:25:21.030Z,10.87
2023-04-02T06:27:50.535Z,10.97
2023-04-02T06:30:23.527Z,11.09
2023-04-02T06:32:51.660Z,11.43
2023-04-02T06:35:19.436Z,11.59
2023-04-02T06:37:49.198Z,11.57
2023-04-02T06:40:33.712Z,11.69
2023-04-02T06:43:08.603Z,11.51
2023-04-02T06:45:40.069Z,11.56
2023-04-02T06:48:16.108Z,11.89
2023-04-02T06:50:47.053Z,12.22
2023-04-02T06:53:25.832Z,12.32
2023-04-02T06:55:53.752Z,12.46
2023-04-02T06:58:21.790Z,12.35
2023-04-02T07:00:51.159Z,12.78
2023-04-02T07:03:30.622Z,12.91
2023-04-02T07:06:00.399Z,12.56
2023-04-02T07:08:28.404Z,13.56
2023-04-02T07:10:56.809Z,13.94
2023-04-02T07:13:25.043Z,14.11
2023-04-02T07:15:54.634Z,13.22
2023-04-02T07:18:28.495Z,13.80
2023-04-02T07:20:57.728Z,13.76
2023-04-02T07:23:26.356Z,14.16
2023-04-02T07:25:54.958Z,13.97
2023-04-02T07:28:23.247Z,14.36
2023-04-02T07:30:51.414Z,14.49
2023-04-02T07:33:22.252Z,14.77
2023-04-02T07:35:51.365Z,14.49
2023-04-02T07:38:18.821Z,14.21
2023-04-02T07:40:46.148Z,14.35
2023-04-02T07:43:13.814Z,13.17
2023-04-02T07:45:41.366Z,13.61
2023-04-02T07:48:10.941Z,13.93
2023-04-02T07:50:38.914Z,14.36
2023-04-02T07:53:08.864Z,13.84
2023-04-02T07:58:04.233Z,14.10
2023-04-02T08:00:32.307Z,13.86
2023-04-02T08:02:59.969Z,13.91
2023-04-02T08:05:27.876Z,13.77
2023-04-02T08:07:56.153Z,13.66
2023-04-02T08:10:24.330Z,13.88
2023-04-02T08:12:51.770Z,13.81
2023-04-02T08:15:19.047Z,13.94
2023-04-02T08:17:48.550Z,14.09
2023-04-02T08:20:21.357Z,13.84
2023-04-02T08:22:49.803Z,13.23
2023-04-02T08:25:17.580Z,13.40
2023-04-02T08:27:47.246Z,13.50
2023-04-02T08:30:16.100Z,13.56
2023-04-02T08:32:43.579Z,13.60
2023-04-02T08:35:12.629Z,13.69
2023-04-02T08:37:41.469Z,13.94
2023-04-02T08:40:19.112Z,13.73
2023-04-02T08:42:53.158Z,13.37
2023-04-02T08:45:25.845Z,13.52
2023-04-02T08:47:56.316Z,13.67
2023-04-02T08:50:36.915Z,13.87
2023-04-02T08:53:18.621Z,13.86
2023-04-02T08:55:59.494Z,13.78
2023-04-02T08:58:54.776Z,14.02
2023-04-02T09:01:35.119Z,14.13
2023-04-02T09:04:12.517Z,13.93
2023-04-02T09:06:41.149Z,14.14
2023-04-02T09:09:09.242Z,14.28
2023-04-02T09:11:48.520Z,15.02
2023-04-02T09:14:24.971Z,14.99
2023-04-02T09:17:03.375Z,14.57
2023-04-02T09:19:39.277Z,14.21
2023-04-02T09:22:06.593Z,14.12
2023-04-02T09:24:37.910Z,14.39
2023-04-02T09:27:17.545Z,14.45
2023-04-02T09:29:47.617Z,14.48
2023-04-02T09:32:44.158Z,14.23
2023-04-02T09:35:34.073Z,13.82
2023-04-02T09:38:11.787Z,14.09
2023-04-02T09:40:59.337Z,13.83
2023-04-02T09:43:28.978Z,14.00
2023-04-02T09:46:02.972Z,14.02
2023-04-02T09:48:39.590Z,14.21
2023-04-02T09:51:10.680Z,14.21
2023-04-02T09:57:24.426Z,14.22
2023-04-02T10:03:03.369Z,14.56
2023-04-02T10:05:40.642Z,14.13
2023-04-02T10:08:29.127Z,14.14
2023-04-02T10:11:02.599Z,14.31
2023-04-02T10:13:42.206Z,14.27
2023-04-02T10:16:14.723Z,14.37
2023-04-02T10:18:56.002Z,14.30
2023-04-02T10:21:32.833Z,14.25
2023-04-02T10:24:02.924Z,15.13
2023-04-02T10:26:51.641Z,14.96
2023-04-02T10:29:30.262Z,15.19
2023-04-02T10:32:06.679Z,15.20
2023-04-02T10:34:43.449Z,15.11
2023-04-02T10:37:34.273Z,16.10
2023-04-02T10:40:32.426Z,16.43
2023-04-02T10:43:12.398Z,16.66
2023-04-02T10:49:14.135Z,16.90
2023-04-02T10:51:46.352Z,17.48
2023-04-02T10:54:21.996Z,17.30
2023-04-02T10:56:51.295Z,16.52
2023-04-02T10:59:23.062Z,16.72
2023-04-02T11:01:51.810Z,16.32
2023-04-02T11:04:23.526Z,15.74
2023-04-02T11:07:11.015Z,15.50
2023-04-02T11:09:43.706Z,15.58
2023-04-02T11:12:23.037Z,16.03
2023-04-02T11:14:51.041Z,16.44
2023-04-02T11:17:19.833Z,16.30
2023-04-02T11:19:48.920Z,16.34
2023-04-02T11:22:20.811Z,15.88
2023-04-02T11:24:52.058Z,15.65
2023-04-02T11:27:30.937Z,15.54
2023-04-02T11:30:04.130Z,15.48
2023-04-02T11:32:42.636Z,15.69
2023-04-02T11:35:53.522Z,15.17
2023-04-02T11:39:10.847Z,14.74
2023-04-02T11:42:03.358Z,14.62
2023-04-02T11:44:35.059Z,14.85
2023-04-02T11:47:23.462Z,15.12
2023-04-02T11:50:05.341Z,15.10
2023-04-02T11:52:35.794Z,15.44
2023-04-02T11:55:27.537Z,15.62
2023-04-02T11:58:26.850Z,15.82
2023-04-02T12:01:23.025Z,16.03
2023-04-02T12:04:12.566Z,16.18
2023-04-02T12:06:47.279Z,16.49
2023-04-02T12:09:26.132Z,16.92
2023-04-02T12:12:26.649Z,16.93
2023-04-02T12:15:35.319Z,17.05
2023-04-02T12:18:14.132Z,16.92
2023-04-02T12:20:42.972Z,16.74
2023-04-02T12:23:20.320Z,16.25
2023-04-02T12:25:58.497Z,15.93
2023-04-02T12:28:29.053Z,15.91
2023-04-02T12:31:14.164Z,15.80
2023-04-02T12:33:45.906Z,15.72
2023-04-02T12:36:16.412Z,15.67
2023-04-02T12:38:49.753Z,15.88
2023-04-02T12:41:27.673Z,16.13
2023-04-02T12:44:03.381Z,15.79
2023-04-02T12:46:32.218Z,15.81
2023-04-02T12:49:25.881Z,15.89
2023-04-02T12:51:54.844Z,16.29
2023-04-02T12:54:25.317Z,16.24
2023-04-02T12:56:52.645Z,16.37
2023-04-02T12:59:26.468Z,16.54
2023-04-02T13:01:59.425Z,16.61
2023-04-02T13:04:27.642Z,17.09
2023-04-02T13:06:56.267Z,17.25
2023-04-02T13:09:36.402Z,17.02
2023-04-02T13:12:04.670Z,17.21
2023-04-02T13:14:32.131Z,16.35
2023-04-02T13:16:59.677Z,16.45
2023-04-02T13:19:36.502Z,16.49
2023-04-02T13:22:24.678Z,16.52
2023-04-02T13:24:56.423Z,16.27
2023-04-02T13:27:24.223Z,15.56
2023-04-02T13:29:53.307Z,15.67
2023-04-02T13:32:22.584Z,15.63
2023-04-02T13:34:52.933Z,15.42
2023-04-02T13:37:21.054Z,15.64
2023-04-02T13:39:48.575Z,15.63
2023-04-02T13:42:16.852Z,15.15
2023-04-02T13:44:47.980Z,15.01
2023-04-02T13:47:17.695Z,15.23
2023-04-02T13:49:45.322Z,15.30
2023-04-02T13:52:15.265Z,15.38
2023-04-02T13:54:51.358Z,15.07
2023-04-02T13:57:20.298Z,14.88
2023-04-02T13:59:47.863Z,14.57
2023-04-02T14:02:21.719Z,14.37
2023-04-02T14:04:52.560Z,14.15
2023-04-02T14:07:59.819Z,13.90
2023-04-02T14:11:09.266Z,13.94
2023-04-02T14:13:36.949Z,13.87
2023-04-02T14:16:17.567Z,13.98
2023-04-02T14:18:51.368Z,14.18
2023-04-02T14:21:31.461Z,14.46
2023-04-02T14:24:18.522Z,14.80
2023-04-02T14:26:57.933Z,15.02
2023-04-02T14:29:40.839Z,15.34
2023-04-02T14:32:32.655Z,15.51
2023-04-02T14:35:13.788Z,15.59
2023-04-02T14:38:38.972Z,15.77
2023-04-02T14:41:14.418Z,16.20
2023-04-02T14:43:51.237Z,16.43
2023-04-02T14:46:20.517Z,16.44
2023-04-02T14:49:02.121Z,16.27
2023-04-02T14:52:05.808Z,15.83
2023-04-02T14:54:50.416Z,15.51
2023-04-02T14:57:26.674Z,15.53
2023-04-02T15:00:13.697Z,15.04
2023-04-02T15:03:07.587Z,14.67
2023-04-02T15:05:46.594Z,14.62
2023-04-02T15:08:25.505Z,14.56
2023-04-02T15:11:04.934Z,14.35
2023-04-02T15:13:39.026Z,14.54
2023-04-02T15:16:20.068Z,14.60
2023-04-02T15:18:52.011Z,14.75
2023-04-02T15:21:31.778Z,14.70
2023-04-02T15:24:23.298Z,14.67
2023-04-02T15:27:25.095Z,15.11
2023-04-02T15:30:15.121Z,15.35
2023-04-02T15:32:46.598Z,15.37
2023-04-02T15:35:20.464Z,15.21
2023-04-02T15:38:04.709Z,15.04
2023-04-02T15:40:55.631Z,14.90
2023-04-02T15:43:42.089Z,14.57
2023-04-02T15:46:10.133Z,12.78
2023-04-02T15:49:10.666Z,11.90
2023-04-02T15:51:51.508Z,11.49
2023-04-02T15:54:38.051Z,11.40
2023-04-02T15:57:24.161Z,11.36
2023-04-02T16:00:18.165Z,11.47
2023-04-02T16:02:51.394Z,11.46
2023-04-02T16:05:37.744Z,11.72
2023-04-02T16:08:08.316Z,11.81
2023-04-02T16:10:42.337Z,11.91
2023-04-02T16:13:34.884Z,11.79
2023-04-02T16:16:18.137Z,12.07
2023-04-02T16:19:16.624Z,12.09
2023-04-02T16:22:10.442Z,12.36
2023-04-02T16:24:39.080Z,12.47
2023-04-02T16:27:41.946Z,12.78
2023-04-02T16:30:39.260Z,12.81
2023-04-02T16:33:32.590Z,12.91
2023-04-02T16:36:27.383Z,13.02
2023-04-02T16:40:01.019Z,13.23
2023-04-02T16:42:39.844Z,13.39
2023-04-02T16:45:36.307Z,13.35
2023-04-02T16:48:42.776Z,13.28
2023-04-02T16:51:20.336Z,13.18
2023-04-02T16:54:01.548Z,13.04
2023-04-02T16:56:40.418Z,12.87
2023-04-02T16:59:22.087Z,12.66
2023-04-02T17:02:17.419Z,12.54
2023-04-02T17:05:10.876Z,12.36
2023-04-02T17:07:47.864Z,12.20
2023-04-02T17:10:34.064Z,12.03
2023-04-02T17:13:33.573Z,11.90
2023-04-02T17:16:13.091Z,11.73
2023-04-02T17:18:43.504Z,11.54
2023-04-02T17:21:16.281Z,11.45
2023-04-02T17:23:58.078Z,11.32
2023-04-02T17:26:34.493Z,11.22
2023-04-02T17:29:08.287Z,11.19
2023-04-02T17:31:38.346Z,11.12
2023-04-02T17:34:26.976Z,10.99
2023-04-02T17:37:02.489Z,10.91
2023-04-02T17:39:50.375Z,10.82
2023-04-02T17:42:39.235Z,10.69
2023-04-02T17:45:14.521Z,10.59
2023-04-02T17:47:51.345Z,10.52
2023-04-02T17:50:26.030Z,10.36
2023-04-02T17:53:10.758Z,10.28
2023-04-02T17:56:17.975Z,10.17
2023-04-02T17:58:56.008Z,10.07
2023-04-02T18:01:57.417Z,9.97
2023-04-02T18:04:34.833Z,9.84
2023-04-02T18:07:05.340Z,9.65
2023-04-02T18:09:40.504Z,9.56
2023-04-02T18:12:41.275Z,9.47
2023-04-02T18:15:34.970Z,9.22
2023-04-02T18:18:27.466Z,9.09
2023-04-02T18:21:19.060Z,8.96
2023-04-02T18:24:20.802Z,8.79
2023-04-02T18:26:56.963Z,8.72
2023-04-02T18:29:42.445Z,8.63
2023-04-02T18:32:28.125Z,8.53
2023-04-02T18:34:56.826Z,8.47
2023-04-02T18:38:04.330Z,8.38
2023-04-02T18:40:41.660Z,8.23
2023-04-02T18:43:29.942Z,8.12
2023-04-02T18:46:14.812Z,8.06
2023-04-02T18:49:20.646Z,7.91
2023-04-02T18:51:54.240Z,7.88
2023-04-02T18:54:39.237Z,7.74
2023-04-02T18:57:39.457Z,7.64
2023-04-02T19:00:32.234Z,7.57
2023-04-02T19:03:17.138Z,7.48
2023-04-02T19:05:54.814Z,7.47
2023-04-02T19:08:30.495Z,7.33
2023-04-02T19:11:14.624Z,7.36
2023-04-02T19:13:45.182Z,7.23
2023-04-02T19:16:49.926Z,7.17
2023-04-02T19:22:30.855Z,7.02
2023-04-02T19:25:36.297Z,6.97
2023-04-02T19:28:28.459Z,6.89
2023-04-02T19:31:03.077Z,6.86
2023-04-02T19:33:52.471Z,6.79
2023-04-02T19:36:31.305Z,6.73
2023-04-02T19:39:28.009Z,6.66
2023-04-02T19:42:14.643Z,6.65
2023-04-02T19:44:49.114Z,6.67
2023-04-02T19:47:21.130Z,6.61
2023-04-02T19:49:54.589Z,6.58
2023-04-02T19:52:25.867Z,6.52
2023-04-02T19:54:55.706Z,6.53
2023-04-02T19:57:28.980Z,6.41
2023-04-02T20:00:00.752Z,6.38
2023-04-02T20:02:29.376Z,6.39
2023-04-02T20:04:58.284Z,6.36
2023-04-02T20:07:26.762Z,6.39
2023-04-02T20:09:56.460Z,6.39
2023-04-02T20:12:25.658Z,6.44
2023-04-02T20:14:54.384Z,6.49
2023-04-02T20:17:25.686Z,6.50
2023-04-02T20:19:55.376Z,6.47
2023-04-02T20:22:24.683Z,6.45
2023-04-02T20:24:55.526Z,6.32
2023-04-02T20:27:24.387Z,6.32
2023-04-02T20:29:52.431Z,6.33
2023-04-02T20:32:20.016Z,6.25
2023-04-02T20:34:48.377Z,6.32
2023-04-02T20:37:15.850Z,6.26
2023-04-02T20:39:43.229Z,6.17
2023-04-02T20:42:10.949Z,6.12
2023-04-02T20:44:38.337Z,6.18
2023-04-02T20:47:07.256Z,6.16
2023-04-02T20:49:35.514Z,6.17
2023-04-02T20:52:22.190Z,6.24
2023-04-02T20:54:50.048Z,6.30
2023-04-02T20:57:19.630Z,6.33
2023-04-02T20:59:46.940Z,6.32
2023-04-02T21:02:14.429Z,6.34
2023-04-02T21:04:41.626Z,6.31
2023-04-02T21:07:08.877Z,6.32
2023-04-02T21:09:36.365Z,6.31
2023-04-02T21:12:03.815Z,6.37
2023-04-02T21:14:35.826Z,6.31
2023-04-02T21:17:06.201Z,6.30
2023-04-02T21:19:34.553Z,6.25
2023-04-02T21:22:02.078Z,6.26
2023-04-02T21:24:29.657Z,6.17
2023-04-02T21:26:59.118Z,6.23
2023-04-02T21:29:29.199Z,6.19
2023-04-02T21:31:56.818Z,6.18
2023-04-02T21:34:24.114Z,6.16
2023-04-02T21:36:51.267Z,6.19
2023-04-02T21:39:19.978Z,6.19
2023-04-02T21:41:50.167Z,6.17
2023-04-02T21:44:20.631Z,6.21
2023-04-02T21:46:48.936Z,6.17
2023-04-02T21:49:18.742Z,6.21
2023-04-02T21:51:46.833Z,6.16
2023-04-02T21:54:14.319Z,6.16
2023-04-02T21:56:44.563Z,6.14
2023-04-02T21:59:13.280Z,6.14
2023-04-02T22:01:43.543Z,6.16
2023-04-02T22:04:16.622Z,6.16
2023-04-02T22:06:44.261Z,6.15
2023-04-02T22:09:17.630Z,6.11
2023-04-02T22:11:47.425Z,6.10
2023-04-02T22:14:15.392Z,6.04
2023-04-02T22:16:42.809Z,6.01
2023-04-02T22:19:13.887Z,5.99
2023-04-02T22:21:41.829Z,6.01
2023-04-02T22:24:12.889Z,5.98
2023-04-02T22:26:41.016Z,6.02
2023-04-02T22:29:09.315Z,6.05
2023-04-02T22:31:36.949Z,6.05
2023-04-02T22:34:05.601Z,6.06
2023-04-02T22:36:33.387Z,6.04
2023-04-02T22:39:01.214Z,6.00
2023-04-02T22:41:29.629Z,5.96
2023-04-02T22:43:58.481Z,5.94
2023-04-02T22:46:26.845Z,5.93
2023-04-02T22:48:54.371Z,5.95
2023-04-02T22:51:23.401Z,5.98
2023-04-02T22:53:53.255Z,5.90
2023-04-02T22:56:23.002Z,5.98
2023-04-02T22:58:50.741Z,5.90
2023-04-02T23:01:27.208Z,5.81
2023-04-02T23:03:55.549Z,5.76
2023-04-02T23:06:23.604Z,5.81
2023-04-02T23:08:51.431Z,5.82
2023-04-02T23:11:24.340Z,5.76
2023-04-02T23:13:53.840Z,5.74
2023-04-02T23:16:23.010Z,5.77
2023-04-02T23:18:50.583Z,5.76
2023-04-02T23:21:19.399Z,5.70
2023-04-02T23:23:47.088Z,5.68
2023-04-02T23:26:27.623Z,5.76
2023-04-02T23:28:55.334Z,5.72
2023-04-02T23:31:23.947Z,5.70
2023-04-02T23:33:51.989Z,5.71
2023-04-02T23:36:25.512Z,5.68
2023-04-02T23:38:56.780Z,5.70
2023-04-02T23:41:26.993Z,5.73
2023-04-02T23:43:55.954Z,5.71
2023-04-02T23:46:24.122Z,5.73
2023-04-02T23:48:52.148Z,5.63
2023-04-02T23:51:19.580Z,5.64
2023-04-02T23:53:47.659Z,5.60
2023-04-02T23:56:15.426Z,5.54
2023-04-02T23:58:42.568Z,5.49
